createdAt,value
2019-01-11T00:00:36.230Z,90.60
2019-01-11T00:03:05.277Z,90.80
2019-01-11T00:05:34.381Z,90.80
2019-01-11T00:08:03.425Z,90.70
2019-01-11T00:10:32.537Z,90.40
2019-01-11T00:13:01.580Z,90.40
2019-01-11T00:15:31.396Z,91.30
2019-01-11T00:18:00.458Z,89.90
2019-01-11T00:20:29.550Z,89.60
2019-01-11T00:22:58.594Z,90.10
2019-01-11T00:25:27.722Z,90.50
2019-01-11T00:27:56.664Z,91.10
2019-01-11T00:30:25.657Z,91.40
2019-01-11T00:32:54.592Z,91.90
2019-01-11T00:35:23.676Z,91.80
2019-01-11T00:37:52.710Z,91.60
2019-01-11T00:40:21.855Z,91.30
2019-01-11T00:42:50.902Z,91.10
2019-01-11T00:45:19.821Z,91.60
2019-01-11T00:47:48.846Z,92.00
2019-01-11T00:50:18.004Z,92.00
2019-01-11T00:52:47.077Z,91.90
2019-01-11T00:55:16.139Z,91.90
2019-01-11T00:57:45.233Z,92.00
2019-01-11T01:00:20.760Z,91.80
2019-01-11T01:02:49.771Z,92.10
2019-01-11T01:05:18.902Z,91.90
2019-01-11T01:07:48.020Z,92.00
2019-01-11T01:10:18.172Z,92.30
2019-01-11T01:12:47.273Z,91.50
2019-01-11T01:15:16.546Z,91.70
2019-01-11T01:17:45.543Z,92.00
2019-01-11T01:20:16.390Z,92.60
2019-01-11T01:22:45.511Z,92.80
2019-01-11T01:25:14.642Z,90.80
2019-01-11T01:27:43.768Z,91.50
2019-01-11T01:30:15.961Z,92.20
2019-01-11T01:32:44.955Z,93.20
2019-01-11T01:35:13.927Z,93.10
2019-01-11T01:37:42.996Z,93.20
2019-01-11T01:40:15.144Z,92.80
2019-01-11T01:42:44.142Z,92.40
2019-01-11T01:45:18.325Z,92.20
2019-01-11T01:47:47.430Z,93.10
2019-01-11T01:50:16.446Z,92.80
2019-01-11T01:52:45.543Z,93.40
2019-01-11T01:55:15.285Z,93.70
2019-01-11T01:57:44.387Z,93.40
2019-01-11T02:00:18.923Z,92.80
2019-01-11T02:02:47.928Z,92.70
2019-01-11T02:05:16.970Z,93.10
2019-01-11T02:07:46.053Z,93.30
2019-01-11T02:10:15.449Z,92.70
2019-01-11T02:12:44.487Z,92.10
2019-01-11T02:15:13.685Z,92.30
2019-01-11T02:17:42.723Z,92.40
2019-01-11T02:20:16.658Z,92.40
2019-01-11T02:22:45.720Z,92.30
2019-01-11T02:25:14.924Z,92.40
2019-01-11T02:27:43.982Z,93.20
2019-01-11T02:30:18.579Z,93.40
2019-01-11T02:32:52.431Z,93.90
2019-01-11T02:35:18.274Z,93.70
2019-01-11T02:37:47.300Z,93.90
2019-01-11T02:40:16.520Z,93.90
2019-01-11T02:42:45.580Z,93.80
2019-01-11T02:45:17.077Z,93.40
2019-01-11T02:47:46.028Z,93.50
2019-01-11T02:50:15.738Z,93.40
2019-01-11T02:52:44.772Z,93.30
2019-01-11T02:55:13.797Z,93.70
2019-01-11T02:57:42.852Z,93.40
2019-01-11T03:00:19.745Z,93.70
2019-01-11T03:02:48.777Z,93.60
2019-01-11T03:05:17.968Z,93.30
2019-01-11T03:07:47.146Z,93.30
2019-01-11T03:10:20.646Z,93.20
2019-01-11T03:12:49.680Z,93.30
2019-01-11T03:15:18.977Z,93.30
2019-01-11T03:17:48.052Z,93.20
2019-01-11T03:20:18.051Z,93.60
2019-01-11T03:22:47.082Z,93.70
2019-01-11T03:25:16.849Z,93.50
2019-01-11T03:27:45.905Z,93.50
2019-01-11T03:30:16.945Z,93.60
2019-01-11T03:32:46.064Z,93.50
2019-01-11T03:35:18.766Z,93.40
2019-01-11T03:37:48.885Z,93.20
2019-01-11T03:40:22.216Z,93.20
2019-01-11T03:42:51.330Z,93.30
2019-01-11T03:45:21.682Z,93.70
2019-01-11T03:47:50.833Z,93.10
2019-01-11T03:50:20.249Z,93.70
2019-01-11T03:52:49.376Z,93.70
2019-01-11T03:55:21.590Z,93.40
2019-01-11T03:57:50.690Z,93.60
2019-01-11T04:00:23.113Z,93.80
2019-01-11T04:02:52.243Z,93.80
2019-01-11T04:05:21.293Z,93.70
2019-01-11T04:07:50.508Z,93.60
2019-01-11T04:10:21.043Z,93.10
2019-01-11T04:12:50.129Z,93.50
2019-01-11T04:15:20.470Z,93.70
2019-01-11T04:17:51.499Z,93.70
2019-01-11T04:20:20.530Z,93.30
2019-01-11T04:22:51.118Z,93.50
2019-01-11T04:25:21.733Z,93.80
2019-01-11T04:27:51.442Z,93.90
2019-01-11T04:30:20.573Z,93.80
2019-01-11T04:32:49.689Z,93.90
2019-01-11T04:35:18.718Z,94.00
2019-01-11T04:37:47.835Z,94.30
2019-01-11T04:40:16.969Z,94.10
2019-01-11T04:42:45.910Z,94.00
2019-01-11T04:45:14.910Z,94.20
2019-01-11T04:47:43.948Z,94.30
2019-01-11T04:50:15.562Z,94.50
2019-01-11T04:52:46.144Z,94.30
2019-01-11T04:55:15.415Z,94.40
2019-01-11T04:57:44.434Z,94.20
2019-01-11T05:00:21.033Z,94.10
2019-01-11T05:02:49.967Z,94.30
2019-01-11T05:05:19.071Z,93.90
2019-01-11T05:07:48.109Z,94.00
2019-01-11T05:10:18.744Z,94.10
2019-01-11T05:12:47.762Z,94.50
2019-01-11T05:15:16.767Z,94.30
2019-01-11T05:17:45.807Z,94.10
2019-01-11T05:20:17.198Z,94.10
2019-01-11T05:22:46.467Z,93.90
2019-01-11T05:25:15.588Z,94.20
2019-01-11T05:27:44.625Z,94.00
2019-01-11T05:30:16.042Z,94.10
2019-01-11T05:32:45.295Z,94.10
2019-01-11T05:35:14.470Z,94.10
2019-01-11T05:37:44.572Z,94.30
2019-01-11T05:40:16.116Z,94.20
2019-01-11T05:42:45.131Z,94.00
2019-01-11T05:45:14.140Z,93.90
2019-01-11T05:47:43.451Z,94.10
2019-01-11T05:50:15.546Z,94.10
2019-01-11T05:52:44.485Z,94.10
2019-01-11T05:55:15.067Z,93.80
2019-01-11T05:57:45.580Z,93.90
2019-01-11T06:00:14.720Z,93.70
2019-01-11T06:02:43.767Z,93.70
2019-01-11T06:05:12.854Z,93.80
2019-01-11T06:07:43.359Z,93.60
2019-01-11T06:10:14.598Z,93.80
2019-01-11T06:12:43.636Z,93.80
2019-01-11T06:15:12.696Z,93.60
2019-01-11T06:17:41.796Z,93.50
2019-01-11T06:20:13.644Z,93.30
2019-01-11T06:22:42.727Z,93.20
2019-01-11T06:25:11.662Z,93.40
2019-01-11T06:27:44.166Z,93.40
2019-01-11T06:30:14.681Z,92.90
2019-01-11T06:32:44.670Z,92.90
2019-01-11T06:35:13.755Z,92.80
2019-01-11T06:37:42.832Z,92.90
2019-01-11T06:40:12.354Z,92.80
2019-01-11T06:42:41.463Z,92.70
2019-01-11T06:45:11.297Z,92.80
2019-01-11T06:47:40.457Z,93.10
2019-01-11T06:50:15.106Z,93.10
2019-01-11T06:52:44.100Z,92.90
2019-01-11T06:55:13.139Z,92.70
2019-01-11T06:57:42.129Z,92.30
2019-01-11T07:00:16.316Z,92.20
2019-01-11T07:02:45.423Z,92.50
2019-01-11T07:05:14.482Z,92.70
2019-01-11T07:07:43.851Z,92.40
2019-01-11T07:10:23.331Z,92.40
2019-01-11T07:12:52.320Z,91.90
2019-01-11T07:15:21.257Z,92.40
2019-01-11T07:17:50.344Z,92.00
2019-01-11T07:20:20.611Z,92.30
2019-01-11T07:22:49.710Z,92.30
2019-01-11T07:25:18.626Z,92.20
2019-01-11T07:27:49.203Z,92.30
2019-01-11T07:30:18.239Z,92.20
2019-01-11T07:32:47.442Z,92.20
2019-01-11T07:35:16.369Z,92.10
2019-01-11T07:37:45.442Z,92.40
2019-01-11T07:40:14.561Z,92.30
2019-01-11T07:42:43.484Z,92.50
2019-01-11T07:45:13.680Z,92.40
2019-01-11T07:47:42.634Z,92.70
2019-01-11T07:50:11.743Z,92.60
2019-01-11T07:52:40.679Z,92.60
2019-01-11T07:55:10.385Z,92.30
2019-01-11T07:57:39.436Z,92.20
2019-01-11T08:00:12.244Z,92.30
2019-01-11T08:02:43.053Z,92.20
2019-01-11T08:05:12.231Z,92.50
2019-01-11T08:07:41.252Z,92.30
2019-01-11T08:10:11.956Z,92.00
2019-01-11T08:12:41.032Z,92.00
2019-01-11T08:15:13.014Z,91.70
2019-01-11T08:17:42.052Z,91.90
2019-01-11T08:20:11.261Z,91.50
2019-01-11T08:22:41.299Z,91.70
2019-01-11T08:25:11.592Z,91.70
2019-01-11T08:27:40.657Z,91.70
2019-01-11T08:30:16.619Z,91.40
2019-01-11T08:32:45.890Z,91.70
2019-01-11T08:35:15.497Z,91.70
2019-01-11T08:37:44.539Z,91.90
2019-01-11T08:40:13.779Z,91.80
2019-01-11T08:42:42.717Z,91.60
2019-01-11T08:45:13.885Z,91.70
2019-01-11T08:47:42.823Z,91.30
2019-01-11T08:50:20.030Z,91.60
2019-01-11T08:52:49.082Z,91.90
2019-01-11T08:55:18.192Z,91.30
2019-01-11T08:57:47.235Z,91.20
2019-01-11T09:00:17.041Z,91.60
2019-01-11T09:02:46.088Z,92.30
2019-01-11T09:05:15.140Z,92.10
2019-01-11T09:07:44.254Z,92.10
2019-01-11T09:10:22.357Z,92.00
2019-01-11T09:12:46.424Z,92.60
2019-01-11T09:15:15.484Z,92.20
2019-01-11T09:17:54.856Z,92.10
2019-01-11T09:20:23.786Z,92.30
2019-01-11T09:22:52.891Z,92.30
2019-01-11T09:25:22.035Z,92.10
2019-01-11T09:27:51.131Z,92.10
2019-01-11T09:30:20.214Z,91.90
2019-01-11T09:32:49.217Z,91.90
2019-01-11T09:35:18.162Z,91.90
2019-01-11T09:37:47.285Z,91.90
2019-01-11T09:40:16.376Z,91.80
2019-01-11T09:42:45.485Z,91.50
2019-01-11T09:45:14.426Z,91.00
2019-01-11T09:47:43.531Z,91.10
2019-01-11T09:50:12.578Z,90.90
2019-01-11T09:52:41.691Z,90.70
2019-01-11T09:55:10.628Z,91.10
2019-01-11T09:57:39.759Z,90.70
2019-01-11T10:00:11.901Z,90.50
2019-01-11T10:02:41.244Z,90.60
2019-01-11T10:05:10.641Z,90.40
2019-01-11T10:07:39.675Z,90.50
2019-01-11T10:10:11.408Z,90.60
2019-01-11T10:12:40.522Z,90.70
2019-01-11T10:15:11.485Z,91.00
2019-01-11T10:17:40.502Z,91.00
2019-01-11T10:20:11.867Z,91.50
2019-01-11T10:22:41.374Z,91.50
2019-01-11T10:25:13.385Z,91.70
2019-01-11T10:27:48.178Z,91.60
2019-01-11T10:30:22.616Z,91.70
2019-01-11T10:32:51.715Z,91.60
2019-01-11T10:35:20.650Z,91.70
2019-01-11T10:37:49.690Z,91.70
2019-01-11T10:40:18.996Z,91.70
2019-01-11T10:42:48.094Z,91.60
2019-01-11T10:45:18.986Z,92.10
2019-01-11T10:47:48.010Z,91.70
2019-01-11T10:50:18.126Z,91.70
2019-01-11T10:52:47.179Z,91.80
2019-01-11T10:55:17.153Z,91.60
2019-01-11T10:57:47.003Z,91.70
2019-01-11T11:00:18.879Z,91.60
2019-01-11T11:02:47.922Z,91.40
2019-01-11T11:05:16.932Z,91.20
2019-01-11T11:07:46.073Z,91.20
2019-01-11T11:10:15.497Z,91.30
2019-01-11T11:12:44.530Z,91.40
2019-01-11T11:15:15.725Z,91.40
2019-01-11T11:17:45.291Z,91.40
2019-01-11T11:20:18.188Z,91.30
2019-01-11T11:22:47.303Z,91.40
2019-01-11T11:25:20.472Z,90.80
2019-01-11T11:27:49.404Z,90.90
2019-01-11T11:30:19.303Z,91.00
2019-01-11T11:32:55.402Z,90.90
2019-01-11T11:35:24.703Z,90.90
2019-01-11T11:37:53.946Z,90.90
2019-01-11T11:40:23.447Z,91.20
2019-01-11T11:42:52.480Z,90.60
2019-01-11T11:45:21.579Z,91.00
2019-01-11T11:47:50.639Z,91.30
2019-01-11T11:50:19.732Z,91.40
2019-01-11T11:52:48.770Z,91.40
2019-01-11T11:55:17.863Z,91.00
2019-01-11T11:57:46.794Z,91.10
2019-01-11T12:00:20.807Z,91.20
2019-01-11T12:02:49.836Z,91.10
2019-01-11T12:05:18.843Z,91.00
2019-01-11T12:07:47.886Z,90.60
2019-01-11T12:10:17.026Z,90.50
2019-01-11T12:12:46.126Z,90.60
2019-01-11T12:15:15.763Z,90.10
2019-01-11T12:17:44.885Z,90.20
2019-01-11T12:20:17.064Z,90.60
2019-01-11T12:22:46.078Z,90.40
2019-01-11T12:25:15.013Z,90.60
2019-01-11T12:27:44.133Z,90.90
2019-01-11T12:30:15.278Z,90.70
2019-01-11T12:32:44.373Z,90.80
2019-01-11T12:35:14.553Z,91.00
2019-01-11T12:37:43.706Z,90.90
2019-01-11T12:40:17.041Z,90.90
2019-01-11T12:42:46.161Z,90.80
2019-01-11T12:48:07.393Z,90.40
2019-01-11T12:50:36.416Z,91.00
2019-01-11T12:53:05.502Z,91.20
2019-01-11T12:55:37.216Z,90.80
2019-01-11T12:58:09.309Z,90.70
2019-01-11T13:00:38.349Z,90.50
2019-01-11T13:03:07.443Z,90.80
2019-01-11T13:05:36.516Z,90.90
2019-01-11T13:08:05.615Z,90.80
2019-01-11T13:10:34.678Z,91.10
2019-01-11T13:13:03.782Z,91.30
2019-01-11T13:15:32.865Z,91.70
2019-01-11T13:18:01.978Z,91.90
2019-01-11T13:20:31.021Z,92.10
2019-01-11T13:23:00.135Z,92.40
2019-01-11T13:25:32.240Z,92.80
2019-01-11T13:27:59.828Z,92.80
2019-01-11T13:30:28.888Z,93.10
2019-01-11T13:32:57.900Z,93.00
2019-01-11T13:35:27.040Z,93.10
2019-01-11T13:37:56.259Z,92.70
2019-01-11T13:40:28.379Z,92.80
2019-01-11T13:42:57.410Z,92.70
2019-01-11T13:45:26.564Z,92.80
2019-01-11T13:47:55.588Z,93.10
2019-01-11T13:50:32.437Z,93.20
2019-01-11T13:53:01.475Z,93.10
2019-01-11T13:55:30.516Z,93.30
2019-01-11T13:57:59.559Z,93.00
2019-01-11T14:00:28.669Z,93.60
2019-01-11T14:02:57.729Z,92.90
2019-01-11T14:05:26.922Z,92.80
2019-01-11T14:07:55.960Z,92.90
2019-01-11T14:10:25.074Z,92.80
2019-01-11T14:12:54.103Z,93.20
2019-01-11T14:15:23.220Z,92.70
2019-01-11T14:17:52.167Z,93.00
2019-01-11T14:20:21.266Z,93.20
2019-01-11T14:22:50.235Z,93.30
2019-01-11T14:25:19.304Z,93.10
2019-01-11T14:27:48.576Z,93.10
2019-01-11T14:30:19.708Z,93.00
2019-01-11T14:32:48.746Z,93.00
2019-01-11T14:35:17.855Z,93.10
2019-01-11T14:37:46.765Z,92.80
2019-01-11T14:40:16.969Z,93.10
2019-01-11T14:42:46.018Z,92.80
2019-01-11T14:45:16.965Z,92.90
2019-01-11T14:47:46.105Z,93.10
2019-01-11T14:50:17.593Z,92.90
2019-01-11T14:52:46.521Z,93.10
2019-01-11T14:55:15.634Z,93.00
2019-01-11T14:57:44.703Z,93.60
2019-01-11T15:00:22.010Z,93.70
2019-01-11T15:02:51.049Z,93.90
2019-01-11T15:05:20.665Z,93.70
2019-01-11T15:07:49.706Z,93.90
2019-01-11T15:10:18.841Z,93.60
2019-01-11T15:12:48.606Z,93.90
2019-01-11T15:15:17.773Z,93.90
2019-01-11T15:17:46.815Z,93.90
2019-01-11T15:20:17.068Z,94.30
2019-01-11T15:22:46.409Z,94.10
2019-01-11T15:25:15.445Z,94.00
2019-01-11T15:27:44.555Z,93.90
2019-01-11T15:30:17.992Z,93.80
2019-01-11T15:32:47.087Z,94.10
2019-01-11T15:35:16.148Z,94.20
2019-01-11T15:37:45.253Z,94.20
2019-01-11T15:40:27.886Z,94.30
2019-01-11T15:44:09.380Z,94.60
2019-01-11T15:45:48.917Z,94.50
2019-01-11T15:48:18.022Z,94.50
2019-01-11T15:50:50.344Z,94.50
2019-01-11T15:53:19.446Z,94.40
2019-01-11T15:55:48.827Z,94.50
2019-01-11T15:58:17.902Z,94.50
2019-01-11T16:00:48.649Z,94.50
2019-01-11T16:03:17.675Z,94.50
2019-01-11T16:05:46.722Z,94.50
2019-01-11T16:08:15.818Z,94.60
2019-01-11T16:11:19.303Z,94.60
2019-01-11T16:13:54.228Z,94.60
2019-01-11T16:16:23.303Z,94.50
2019-01-11T16:18:52.424Z,94.70
2019-01-11T16:21:21.467Z,94.80
2019-01-11T16:23:50.575Z,94.90
2019-01-11T16:26:19.627Z,95.00
2019-01-11T16:28:48.829Z,94.70
2019-01-11T16:31:17.868Z,94.80
2019-01-11T16:33:46.972Z,95.10
2019-01-11T16:36:16.050Z,94.80
2019-01-11T16:38:45.150Z,94.80
2019-01-11T16:41:14.111Z,94.70
2019-01-11T16:43:43.262Z,94.80
2019-01-11T16:46:12.195Z,94.60
2019-01-11T16:48:41.296Z,94.60
2019-01-11T16:51:10.440Z,94.70
2019-01-11T16:53:39.562Z,94.80
2019-01-11T16:56:08.490Z,94.90
2019-01-11T16:58:37.430Z,94.90
2019-01-11T17:01:06.540Z,95.00
2019-01-11T17:03:35.559Z,94.80
2019-01-11T17:06:04.743Z,94.80
2019-01-11T17:08:33.681Z,95.00
2019-01-11T17:11:02.817Z,95.10
2019-01-11T17:13:31.749Z,94.90
2019-01-11T17:16:00.877Z,94.90
2019-01-11T17:18:29.787Z,94.80
2019-01-11T17:20:58.790Z,94.80
2019-01-11T17:23:27.858Z,94.90
2019-01-11T17:25:56.870Z,94.70
2019-01-11T17:28:25.816Z,94.80
2019-01-11T17:30:54.922Z,94.80
2019-01-11T17:33:23.945Z,94.80
2019-01-11T17:35:53.063Z,94.80
2019-01-11T17:38:22.761Z,95.00
2019-01-11T17:40:51.918Z,94.70
2019-01-11T17:43:20.850Z,94.90
2019-01-11T17:45:49.949Z,95.00
2019-01-11T17:48:18.878Z,95.00
2019-01-11T17:50:47.881Z,95.00
2019-01-11T17:53:16.950Z,95.20
2019-01-11T17:55:46.051Z,95.40
2019-01-11T17:58:14.975Z,95.50
2019-01-11T18:00:44.189Z,95.60
2019-01-11T18:03:13.134Z,95.80
2019-01-11T18:05:42.281Z,95.70
2019-01-11T18:08:11.308Z,96.00
2019-01-11T18:10:40.255Z,95.90
2019-01-11T18:13:09.252Z,96.00
2019-01-11T18:15:38.291Z,95.90
2019-01-11T18:18:07.307Z,95.80
2019-01-11T18:20:36.355Z,96.00
2019-01-11T18:23:07.010Z,95.80
2019-01-11T18:25:35.946Z,95.60
2019-01-11T18:28:06.097Z,95.70
2019-01-11T18:30:35.026Z,95.50
2019-01-11T18:33:04.126Z,95.50
2019-01-11T18:35:33.071Z,95.50
2019-01-11T18:38:02.087Z,95.60
2019-01-11T18:40:31.139Z,95.70
2019-01-11T18:43:00.120Z,95.90
2019-01-11T18:45:29.116Z,96.10
2019-01-11T18:47:58.257Z,95.70
2019-01-11T18:50:27.287Z,95.80
2019-01-11T18:53:13.611Z,95.50
2019-01-11T18:55:40.320Z,95.70
2019-01-11T18:58:09.424Z,95.90
2019-01-11T19:00:38.377Z,96.20
2019-01-11T19:03:10.248Z,95.70
2019-01-11T19:05:39.286Z,95.90
2019-01-11T19:08:08.378Z,95.70
2019-01-11T19:10:37.317Z,95.70
2019-01-11T19:13:06.322Z,95.50
2019-01-11T19:15:35.272Z,95.50
2019-01-11T19:18:04.213Z,95.70
2019-01-11T19:20:33.305Z,95.70
2019-01-11T19:23:02.250Z,95.80
2019-01-11T19:25:31.240Z,96.00
2019-01-11T19:28:00.191Z,95.90
2019-01-11T19:30:29.305Z,95.90
2019-01-11T19:32:58.244Z,96.00
2019-01-11T19:35:27.388Z,96.00
2019-01-11T19:37:56.379Z,96.00
2019-01-11T19:40:25.491Z,95.70
2019-01-11T19:42:54.431Z,95.70
2019-01-11T19:45:23.525Z,95.70
2019-01-11T19:47:52.466Z,95.60
2019-01-11T19:50:22.962Z,95.70
2019-01-11T19:52:51.996Z,95.60
2019-01-11T19:55:21.193Z,95.50
2019-01-11T19:57:50.242Z,95.50
2019-01-11T20:00:22.437Z,95.50
2019-01-11T20:02:51.365Z,95.70
2019-01-11T20:05:20.369Z,95.60
2019-01-11T20:07:49.471Z,95.70
2019-01-11T20:10:24.053Z,95.60
2019-01-11T20:12:52.999Z,95.50
2019-01-11T20:15:21.984Z,95.60
2019-01-11T20:17:51.046Z,95.70
2019-01-11T20:20:20.043Z,95.70
2019-01-11T20:22:48.963Z,96.00
2019-01-11T20:25:20.637Z,96.10
2019-01-11T20:27:49.570Z,96.10
2019-01-11T20:30:20.671Z,96.20
2019-01-11T20:32:49.707Z,96.10
2019-01-11T20:35:18.735Z,96.10
2019-01-11T20:37:47.777Z,96.10
2019-01-11T20:40:17.513Z,96.00
2019-01-11T20:42:46.507Z,96.10
2019-01-11T20:45:17.039Z,96.10
2019-01-11T20:47:46.031Z,96.30
2019-01-11T20:50:17.514Z,96.30
2019-01-11T20:52:46.822Z,96.60
2019-01-11T20:55:34.460Z,96.60
2019-01-11T20:58:03.475Z,96.60
2019-01-11T21:00:32.734Z,96.60
2019-01-11T21:03:01.717Z,96.50
2019-01-11T21:05:30.745Z,96.60
2019-01-11T21:07:59.739Z,96.30
2019-01-11T21:10:28.676Z,96.30
2019-01-11T21:12:57.666Z,96.10
2019-01-11T21:15:26.589Z,95.90
2019-01-11T21:17:55.693Z,96.10
2019-01-11T21:20:24.611Z,96.10
2019-01-11T21:22:53.704Z,96.20
2019-01-11T21:25:22.726Z,96.00
2019-01-11T21:27:51.718Z,96.00
2019-01-11T21:30:28.034Z,96.00
2019-01-11T21:32:57.025Z,96.00
2019-01-11T21:35:25.958Z,95.90
2019-01-11T21:37:55.076Z,95.80
2019-01-11T21:40:24.107Z,95.80
2019-01-11T21:42:53.234Z,96.00
2019-01-11T21:45:22.160Z,96.10
2019-01-11T21:47:51.161Z,96.20
2019-01-11T21:50:22.560Z,96.30
2019-01-11T21:52:51.651Z,96.10
2019-01-11T21:55:20.586Z,95.90
2019-01-11T21:57:49.575Z,96.20
2019-01-11T22:00:21.501Z,96.10
2019-01-11T22:02:50.597Z,96.20
2019-01-11T22:05:19.579Z,96.20
2019-01-11T22:07:49.133Z,96.20
2019-01-11T22:10:18.621Z,96.30
2019-01-11T22:12:51.373Z,96.30
2019-01-11T22:15:20.606Z,96.20
2019-01-11T22:17:49.540Z,96.10
2019-01-11T22:20:19.237Z,96.00
2019-01-11T22:22:48.154Z,96.10
2019-01-11T22:25:18.470Z,96.00
2019-01-11T22:27:47.403Z,96.00
2019-01-11T22:30:30.188Z,96.10
2019-01-11T22:32:56.454Z,96.10
2019-01-11T22:35:25.452Z,96.10
2019-01-11T22:37:54.380Z,96.10
2019-01-11T22:40:24.587Z,96.10
2019-01-11T22:42:57.655Z,96.10
2019-01-11T22:45:26.778Z,96.20
2019-01-11T22:47:55.702Z,96.40
2019-01-11T22:50:24.702Z,96.30
2019-01-11T22:52:53.725Z,96.20
2019-01-11T22:55:22.821Z,96.20
2019-01-11T22:57:51.864Z,96.30
2019-01-11T23:00:28.490Z,96.30
2019-01-11T23:02:59.224Z,96.30
2019-01-11T23:05:28.241Z,96.30
2019-01-11T23:07:57.964Z,96.30
2019-01-11T23:10:41.806Z,96.50
2019-01-11T23:13:10.854Z,96.50
2019-01-11T23:15:39.786Z,96.50
2019-01-11T23:18:08.814Z,96.60
2019-01-11T23:20:37.739Z,96.50
2019-01-11T23:23:06.751Z,96.60
2019-01-11T23:25:35.789Z,96.60
2019-01-11T23:28:04.894Z,96.60
2019-01-11T23:30:33.826Z,96.50
2019-01-11T23:33:02.939Z,96.60
2019-01-11T23:35:31.872Z,96.60
2019-01-11T23:38:00.871Z,96.70
2019-01-11T23:40:29.905Z,96.70
2019-01-11T23:42:58.904Z,96.90
2019-01-11T23:45:28.072Z,96.70
2019-01-11T23:47:57.078Z,96.70
2019-01-11T23:50:26.115Z,96.70
2019-01-11T23:52:55.105Z,96.80
2019-01-11T23:55:24.055Z,96.90
2019-01-11T23:57:53.058Z,96.90
